sensor_id;sensor_type;location;lat;lon;timestamp;P1;durP1;ratioP1;P2;durP2;ratioP2
64826;SDS011;51265;53.972;12.286;2022-07-06T00:01:41;6.15;;;1.45;;
64826;SDS011;51265;53.972;12.286;2022-07-06T00:04:07;3.35;;;1.45;;
64826;SDS011;51265;53.972;12.286;2022-07-06T00:06:33;2.80;;;1.23;;
64826;SDS011;51265;53.972;12.286;2022-07-06T00:08:59;3.67;;;1.40;;
64826;SDS011;51265;53.972;12.286;2022-07-06T00:11:25;4.55;;;1.50;;
64826;SDS011;51265;53.972;12.286;2022-07-06T00:13:51;6.40;;;1.50;;
64826;SDS011;51265;53.972;12.286;2022-07-06T00:16:18;5.88;;;1.52;;
64826;SDS011;51265;53.972;12.286;2022-07-06T00:18:44;7.47;;;1.70;;
64826;SDS011;51265;53.972;12.286;2022-07-06T00:21:10;3.40;;;1.55;;
64826;SDS011;51265;53.972;12.286;2022-07-06T00:23:36;7.90;;;1.70;;
64826;SDS011;51265;53.972;12.286;2022-07-06T00:26:02;5.82;;;1.70;;
64826;SDS011;51265;53.972;12.286;2022-07-06T00:28:28;7.65;;;1.45;;
64826;SDS011;51265;53.972;12.286;2022-07-06T00:30:54;6.03;;;1.55;;
64826;SDS011;51265;53.972;12.286;2022-07-06T00:33:20;5.55;;;1.70;;
64826;SDS011;51265;53.972;12.286;2022-07-06T00:35:47;4.82;;;1.88;;
64826;SDS011;51265;53.972;12.286;2022-07-06T00:38:13;3.75;;;1.42;;
64826;SDS011;51265;53.972;12.286;2022-07-06T00:40:39;2.05;;;1.20;;
64826;SDS011;51265;53.972;12.286;2022-07-06T00:43:05;5.63;;;1.55;;
64826;SDS011;51265;53.972;12.286;2022-07-06T00:45:31;5.28;;;1.70;;
64826;SDS011;51265;53.972;12.286;2022-07-06T00:47:57;6.38;;;1.60;;
64826;SDS011;51265;53.972;12.286;2022-07-06T00:50:23;6.07;;;1.75;;
64826;SDS011;51265;53.972;12.286;2022-07-06T00:55:26;5.65;;;1.35;;
64826;SDS011;51265;53.972;12.286;2022-07-06T00:57:55;5.75;;;1.88;;
64826;SDS011;51265;53.972;12.286;2022-07-06T01:00:23;10.68;;;1.77;;
64826;SDS011;51265;53.972;12.286;2022-07-06T01:02:50;4.85;;;1.50;;
64826;SDS011;51265;53.972;12.286;2022-07-06T01:05:17;6.85;;;2.00;;
64826;SDS011;51265;53.972;12.286;2022-07-06T01:07:44;6.80;;;1.85;;
64826;SDS011;51265;53.972;12.286;2022-07-06T01:10:13;6.32;;;1.65;;
64826;SDS011;51265;53.972;12.286;2022-07-06T01:12:41;5.53;;;1.77;;
64826;SDS011;51265;53.972;12.286;2022-07-06T01:15:15;5.55;;;1.40;;
64826;SDS011;51265;53.972;12.286;2022-07-06T01:17:43;3.25;;;1.38;;
64826;SDS011;51265;53.972;12.286;2022-07-06T01:20:11;7.70;;;2.20;;
64826;SDS011;51265;53.972;12.286;2022-07-06T01:22:37;10.95;;;1.60;;
64826;SDS011;51265;53.972;12.286;2022-07-06T01:25:04;9.30;;;2.05;;
64826;SDS011;51265;53.972;12.286;2022-07-06T01:27:31;4.07;;;1.38;;
64826;SDS011;51265;53.972;12.286;2022-07-06T01:29:57;4.53;;;1.30;;
64826;SDS011;51265;53.972;12.286;2022-07-06T01:32:24;6.28;;;1.58;;
64826;SDS011;51265;53.972;12.286;2022-07-06T01:34:50;3.47;;;1.42;;
64826;SDS011;51265;53.972;12.286;2022-07-06T01:37:16;3.80;;;1.45;;
64826;SDS011;51265;53.972;12.286;2022-07-06T01:39:42;11.18;;;1.80;;
64826;SDS011;51265;53.972;12.286;2022-07-06T01:42:08;4.95;;;1.70;;
64826;SDS011;51265;53.972;12.286;2022-07-06T01:44:34;7.70;;;1.70;;
64826;SDS011;51265;53.972;12.286;2022-07-06T01:47:00;6.95;;;1.75;;
64826;SDS011;51265;53.972;12.286;2022-07-06T01:49:26;4.60;;;1.55;;
64826;SDS011;51265;53.972;12.286;2022-07-06T01:51:52;8.00;;;1.83;;
64826;SDS011;51265;53.972;12.286;2022-07-06T01:54:18;7.40;;;2.10;;
64826;SDS011;51265;53.972;12.286;2022-07-06T01:56:44;7.30;;;1.80;;
64826;SDS011;51265;53.972;12.286;2022-07-06T01:59:10;10.05;;;2.05;;
64826;SDS011;51265;53.972;12.286;2022-07-06T02:01:36;6.13;;;1.83;;
64826;SDS011;51265;53.972;12.286;2022-07-06T02:04:02;11.00;;;2.25;;
64826;SDS011;51265;53.972;12.286;2022-07-06T02:06:28;9.18;;;1.73;;
64826;SDS011;51265;53.972;12.286;2022-07-06T02:08:54;7.63;;;1.70;;
64826;SDS011;51265;53.972;12.286;2022-07-06T02:11:20;6.72;;;1.80;;
64826;SDS011;51265;53.972;12.286;2022-07-06T02:13:46;4.43;;;2.08;;
64826;SDS011;51265;53.972;12.286;2022-07-06T02:16:12;5.80;;;1.85;;
64826;SDS011;51265;53.972;12.286;2022-07-06T02:18:39;6.53;;;1.90;;
64826;SDS011;51265;53.972;12.286;2022-07-06T02:21:05;8.45;;;2.25;;
64826;SDS011;51265;53.972;12.286;2022-07-06T02:23:31;8.48;;;2.25;;
64826;SDS011;51265;53.972;12.286;2022-07-06T02:25:57;5.65;;;1.75;;
64826;SDS011;51265;53.972;12.286;2022-07-06T02:28:24;10.48;;;2.08;;
64826;SDS011;51265;53.972;12.286;2022-07-06T02:30:51;11.32;;;2.53;;
64826;SDS011;51265;53.972;12.286;2022-07-06T02:33:17;4.70;;;2.20;;
64826;SDS011;51265;53.972;12.286;2022-07-06T02:35:43;6.22;;;2.13;;
64826;SDS011;51265;53.972;12.286;2022-07-06T02:38:10;11.32;;;2.50;;
64826;SDS011;51265;53.972;12.286;2022-07-06T02:40:36;5.50;;;1.90;;
64826;SDS011;51265;53.972;12.286;2022-07-06T02:43:04;9.00;;;1.90;;
64826;SDS011;51265;53.972;12.286;2022-07-06T02:45:30;5.85;;;2.38;;
64826;SDS011;51265;53.972;12.286;2022-07-06T02:47:56;7.13;;;2.53;;
64826;SDS011;51265;53.972;12.286;2022-07-06T02:50:23;4.80;;;1.83;;
64826;SDS011;51265;53.972;12.286;2022-07-06T02:52:51;10.35;;;2.55;;
64826;SDS011;51265;53.972;12.286;2022-07-06T02:55:17;10.20;;;2.30;;
64826;SDS011;51265;53.972;12.286;2022-07-06T02:57:43;7.10;;;2.00;;
64826;SDS011;51265;53.972;12.286;2022-07-06T03:00:11;8.82;;;2.75;;
64826;SDS011;51265;53.972;12.286;2022-07-06T03:02:38;8.82;;;2.33;;
64826;SDS011;51265;53.972;12.286;2022-07-06T03:05:04;9.10;;;2.30;;
64826;SDS011;51265;53.972;12.286;2022-07-06T03:07:31;7.95;;;2.05;;
64826;SDS011;51265;53.972;12.286;2022-07-06T03:09:58;8.00;;;2.20;;
64826;SDS011;51265;53.972;12.286;2022-07-06T03:12:24;4.68;;;1.77;;
64826;SDS011;51265;53.972;12.286;2022-07-06T03:14:50;9.13;;;2.42;;
64826;SDS011;51265;53.972;12.286;2022-07-06T03:17:16;7.50;;;2.20;;
64826;SDS011;51265;53.972;12.286;2022-07-06T03:19:42;8.77;;;2.10;;
64826;SDS011;51265;53.972;12.286;2022-07-06T03:22:08;7.22;;;2.40;;
64826;SDS011;51265;53.972;12.286;2022-07-06T03:24:34;10.38;;;2.20;;
64826;SDS011;51265;53.972;12.286;2022-07-06T03:27:00;7.47;;;2.40;;
64826;SDS011;51265;53.972;12.286;2022-07-06T03:29:27;6.13;;;2.20;;
64826;SDS011;51265;53.972;12.286;2022-07-06T03:31:53;10.52;;;2.47;;
64826;SDS011;51265;53.972;12.286;2022-07-06T03:34:19;6.60;;;2.67;;
64826;SDS011;51265;53.972;12.286;2022-07-06T03:36:45;8.00;;;2.50;;
64826;SDS011;51265;53.972;12.286;2022-07-06T03:39:11;5.65;;;2.35;;
64826;SDS011;51265;53.972;12.286;2022-07-06T03:41:38;8.50;;;2.25;;
64826;SDS011;51265;53.972;12.286;2022-07-06T03:44:04;5.75;;;2.17;;
64826;SDS011;51265;53.972;12.286;2022-07-06T03:46:30;4.93;;;1.83;;
64826;SDS011;51265;53.972;12.286;2022-07-06T03:48:57;10.23;;;2.33;;
64826;SDS011;51265;53.972;12.286;2022-07-06T03:51:23;3.95;;;2.20;;
64826;SDS011;51265;53.972;12.286;2022-07-06T03:53:50;6.22;;;2.15;;
64826;SDS011;51265;53.972;12.286;2022-07-06T03:56:17;6.65;;;2.08;;
64826;SDS011;51265;53.972;12.286;2022-07-06T03:59:00;6.72;;;2.10;;
64826;SDS011;51265;53.972;12.286;2022-07-06T04:01:30;5.47;;;2.13;;
64826;SDS011;51265;53.972;12.286;2022-07-06T04:03:57;12.85;;;2.75;;
64826;SDS011;51265;53.972;12.286;2022-07-06T04:06:23;8.52;;;2.38;;
64826;SDS011;51265;53.972;12.286;2022-07-06T04:08:49;7.43;;;2.00;;
64826;SDS011;51265;53.972;12.286;2022-07-06T04:11:15;9.00;;;2.45;;
64826;SDS011;51265;53.972;12.286;2022-07-06T04:13:41;9.93;;;2.50;;
64826;SDS011;51265;53.972;12.286;2022-07-06T04:16:07;5.75;;;2.78;;
64826;SDS011;51265;53.972;12.286;2022-07-06T04:18:33;5.28;;;2.05;;
64826;SDS011;51265;53.972;12.286;2022-07-06T04:20:59;10.05;;;2.13;;
64826;SDS011;51265;53.972;12.286;2022-07-06T04:23:29;4.82;;;1.60;;
64826;SDS011;51265;53.972;12.286;2022-07-06T04:25:55;6.00;;;1.98;;
64826;SDS011;51265;53.972;12.286;2022-07-06T04:28:23;6.45;;;1.90;;
64826;SDS011;51265;53.972;12.286;2022-07-06T04:30:50;7.07;;;2.17;;
64826;SDS011;51265;53.972;12.286;2022-07-06T04:33:19;5.47;;;1.70;;
64826;SDS011;51265;53.972;12.286;2022-07-06T04:35:47;7.43;;;2.10;;
64826;SDS011;51265;53.972;12.286;2022-07-06T04:38:13;7.03;;;2.92;;
64826;SDS011;51265;53.972;12.286;2022-07-06T04:40:40;7.95;;;2.38;;
64826;SDS011;51265;53.972;12.286;2022-07-06T04:43:10;4.95;;;1.92;;
64826;SDS011;51265;53.972;12.286;2022-07-06T04:45:36;7.50;;;2.00;;
64826;SDS011;51265;53.972;12.286;2022-07-06T04:48:04;4.50;;;1.60;;
64826;SDS011;51265;53.972;12.286;2022-07-06T04:50:30;10.40;;;2.35;;
64826;SDS011;51265;53.972;12.286;2022-07-06T04:53:00;5.40;;;1.50;;
64826;SDS011;51265;53.972;12.286;2022-07-06T04:55:26;5.57;;;1.98;;
64826;SDS011;51265;53.972;12.286;2022-07-06T04:57:52;6.15;;;2.00;;
64826;SDS011;51265;53.972;12.286;2022-07-06T05:00:19;7.00;;;1.75;;
64826;SDS011;51265;53.972;12.286;2022-07-06T05:02:51;4.32;;;1.50;;
64826;SDS011;51265;53.972;12.286;2022-07-06T05:05:18;10.90;;;1.85;;
64826;SDS011;51265;53.972;12.286;2022-07-06T05:07:45;5.82;;;1.80;;
64826;SDS011;51265;53.972;12.286;2022-07-06T05:10:11;6.57;;;1.60;;
64826;SDS011;51265;53.972;12.286;2022-07-06T05:12:40;7.40;;;1.88;;
64826;SDS011;51265;53.972;12.286;2022-07-06T05:15:07;5.30;;;1.58;;
64826;SDS011;51265;53.972;12.286;2022-07-06T05:17:34;8.93;;;1.40;;
64826;SDS011;51265;53.972;12.286;2022-07-06T05:20:01;6.82;;;1.45;;
64826;SDS011;51265;53.972;12.286;2022-07-06T05:22:31;7.18;;;1.30;;
64826;SDS011;51265;53.972;12.286;2022-07-06T05:24:57;4.15;;;1.13;;
64826;SDS011;51265;53.972;12.286;2022-07-06T05:27:23;7.07;;;1.27;;
64826;SDS011;51265;53.972;12.286;2022-07-06T05:29:49;4.55;;;1.55;;
64826;SDS011;51265;53.972;12.286;2022-07-06T05:32:15;2.97;;;1.08;;
64826;SDS011;51265;53.972;12.286;2022-07-06T05:34:42;2.75;;;0.85;;
64826;SDS011;51265;53.972;12.286;2022-07-06T05:37:09;2.42;;;0.80;;
64826;SDS011;51265;53.972;12.286;2022-07-06T05:39:35;5.95;;;1.10;;
64826;SDS011;51265;53.972;12.286;2022-07-06T05:42:01;3.92;;;0.93;;
64826;SDS011;51265;53.972;12.286;2022-07-06T05:44:27;3.58;;;0.85;;
64826;SDS011;51265;53.972;12.286;2022-07-06T05:46:53;5.05;;;0.90;;
64826;SDS011;51265;53.972;12.286;2022-07-06T05:49:39;3.97;;;0.70;;
64826;SDS011;51265;53.972;12.286;2022-07-06T05:52:24;7.25;;;0.90;;
64826;SDS011;51265;53.972;12.286;2022-07-06T05:54:50;4.05;;;0.70;;
64826;SDS011;51265;53.972;12.286;2022-07-06T05:57:16;4.72;;;0.73;;
64826;SDS011;51265;53.972;12.286;2022-07-06T05:59:43;3.92;;;0.70;;
64826;SDS011;51265;53.972;12.286;2022-07-06T06:02:09;5.45;;;0.60;;
64826;SDS011;51265;53.972;12.286;2022-07-06T06:04:37;2.75;;;0.70;;
64826;SDS011;51265;53.972;12.286;2022-07-06T06:07:03;2.55;;;0.60;;
64826;SDS011;51265;53.972;12.286;2022-07-06T06:09:29;5.28;;;0.70;;
64826;SDS011;51265;53.972;12.286;2022-07-06T06:11:55;3.20;;;0.68;;
64826;SDS011;51265;53.972;12.286;2022-07-06T06:14:21;3.92;;;0.82;;
64826;SDS011;51265;53.972;12.286;2022-07-06T06:16:47;3.28;;;0.52;;
64826;SDS011;51265;53.972;12.286;2022-07-06T06:19:13;4.65;;;0.88;;
64826;SDS011;51265;53.972;12.286;2022-07-06T06:21:38;5.15;;;0.70;;
64826;SDS011;51265;53.972;12.286;2022-07-06T06:24:04;3.35;;;0.77;;
64826;SDS011;51265;53.972;12.286;2022-07-06T06:26:30;3.08;;;0.50;;
64826;SDS011;51265;53.972;12.286;2022-07-06T06:28:56;5.60;;;0.73;;
64826;SDS011;51265;53.972;12.286;2022-07-06T06:31:22;4.78;;;0.60;;
64826;SDS011;51265;53.972;12.286;2022-07-06T06:33:48;6.53;;;0.68;;
64826;SDS011;51265;53.972;12.286;2022-07-06T06:36:13;3.83;;;0.60;;
64826;SDS011;51265;53.972;12.286;2022-07-06T06:38:39;4.53;;;0.85;;
64826;SDS011;51265;53.972;12.286;2022-07-06T06:41:05;3.05;;;0.68;;
64826;SDS011;51265;53.972;12.286;2022-07-06T06:43:31;3.05;;;0.50;;
64826;SDS011;51265;53.972;12.286;2022-07-06T06:46:06;3.72;;;0.50;;
64826;SDS011;51265;53.972;12.286;2022-07-06T06:48:31;3.78;;;0.85;;
64826;SDS011;51265;53.972;12.286;2022-07-06T06:50:57;4.30;;;0.60;;
64826;SDS011;51265;53.972;12.286;2022-07-06T06:53:23;2.25;;;0.80;;
64826;SDS011;51265;53.972;12.286;2022-07-06T06:55:49;4.80;;;0.77;;
64826;SDS011;51265;53.972;12.286;2022-07-06T06:58:14;2.25;;;0.52;;
64826;SDS011;51265;53.972;12.286;2022-07-06T07:00:40;2.15;;;0.40;;
64826;SDS011;51265;53.972;12.286;2022-07-06T07:03:08;1.98;;;0.43;;
64826;SDS011;51265;53.972;12.286;2022-07-06T07:05:35;4.68;;;0.63;;
64826;SDS011;51265;53.972;12.286;2022-07-06T07:08:01;3.72;;;0.63;;
64826;SDS011;51265;53.972;12.286;2022-07-06T07:10:27;4.75;;;0.70;;
64826;SDS011;51265;53.972;12.286;2022-07-06T07:12:53;5.95;;;0.98;;
64826;SDS011;51265;53.972;12.286;2022-07-06T07:15:19;7.05;;;0.55;;
64826;SDS011;51265;53.972;12.286;2022-07-06T07:17:45;2.50;;;0.47;;
64826;SDS011;51265;53.972;12.286;2022-07-06T07:20:11;7.00;;;0.63;;
64826;SDS011;51265;53.972;12.286;2022-07-06T07:22:37;1.67;;;0.40;;
64826;SDS011;51265;53.972;12.286;2022-07-06T07:25:04;1.65;;;0.45;;
64826;SDS011;51265;53.972;12.286;2022-07-06T07:27:30;2.53;;;0.60;;
64826;SDS011;51265;53.972;12.286;2022-07-06T07:29:56;3.55;;;0.52;;
64826;SDS011;51265;53.972;12.286;2022-07-06T07:32:21;3.40;;;0.90;;
64826;SDS011;51265;53.972;12.286;2022-07-06T07:34:47;5.20;;;0.85;;
64826;SDS011;51265;53.972;12.286;2022-07-06T07:37:13;2.25;;;0.60;;
64826;SDS011;51265;53.972;12.286;2022-07-06T07:39:39;3.30;;;0.70;;
64826;SDS011;51265;53.972;12.286;2022-07-06T07:42:05;1.83;;;0.55;;
64826;SDS011;51265;53.972;12.286;2022-07-06T07:44:31;5.93;;;0.80;;
64826;SDS011;51265;53.972;12.286;2022-07-06T07:46:57;7.40;;;0.60;;
64826;SDS011;51265;53.972;12.286;2022-07-06T07:49:22;2.65;;;0.68;;
64826;SDS011;51265;53.972;12.286;2022-07-06T07:51:48;4.88;;;0.50;;
64826;SDS011;51265;53.972;12.286;2022-07-06T07:54:14;3.72;;;0.63;;
64826;SDS011;51265;53.972;12.286;2022-07-06T07:56:40;2.17;;;0.47;;
64826;SDS011;51265;53.972;12.286;2022-07-06T07:59:06;4.28;;;0.45;;
64826;SDS011;51265;53.972;12.286;2022-07-06T08:01:34;3.92;;;0.50;;
64826;SDS011;51265;53.972;12.286;2022-07-06T08:04:00;4.13;;;0.70;;
64826;SDS011;51265;53.972;12.286;2022-07-06T08:06:26;2.05;;;0.60;;
64826;SDS011;51265;53.972;12.286;2022-07-06T08:08:51;1.63;;;0.98;;
64826;SDS011;51265;53.972;12.286;2022-07-06T08:11:17;4.88;;;0.50;;
64826;SDS011;51265;53.972;12.286;2022-07-06T08:13:43;3.10;;;0.47;;
64826;SDS011;51265;53.972;12.286;2022-07-06T08:16:09;3.15;;;0.68;;
64826;SDS011;51265;53.972;12.286;2022-07-06T08:18:35;4.82;;;1.05;;
64826;SDS011;51265;53.972;12.286;2022-07-06T08:21:01;4.72;;;0.90;;
64826;SDS011;51265;53.972;12.286;2022-07-06T08:23:28;3.72;;;1.00;;
64826;SDS011;51265;53.972;12.286;2022-07-06T08:25:54;3.17;;;0.68;;
64826;SDS011;51265;53.972;12.286;2022-07-06T08:28:20;4.03;;;0.85;;
64826;SDS011;51265;53.972;12.286;2022-07-06T08:30:46;3.28;;;0.63;;
64826;SDS011;51265;53.972;12.286;2022-07-06T08:33:13;4.70;;;0.57;;
64826;SDS011;51265;53.972;12.286;2022-07-06T08:35:39;2.58;;;0.60;;
64826;SDS011;51265;53.972;12.286;2022-07-06T08:38:05;5.05;;;0.75;;
64826;SDS011;51265;53.972;12.286;2022-07-06T08:40:32;7.60;;;0.70;;
64826;SDS011;51265;53.972;12.286;2022-07-06T08:43:03;4.35;;;0.80;;
64826;SDS011;51265;53.972;12.286;2022-07-06T08:45:29;3.53;;;0.80;;
64826;SDS011;51265;53.972;12.286;2022-07-06T08:47:55;1.13;;;0.28;;
64826;SDS011;51265;53.972;12.286;2022-07-06T08:50:24;4.32;;;0.70;;
64826;SDS011;51265;53.972;12.286;2022-07-06T08:52:51;1.65;;;0.70;;
64826;SDS011;51265;53.972;12.286;2022-07-06T08:55:18;6.72;;;0.70;;
64826;SDS011;51265;53.972;12.286;2022-07-06T08:57:47;2.30;;;0.77;;
64826;SDS011;51265;53.972;12.286;2022-07-06T09:00:13;2.03;;;0.45;;
64826;SDS011;51265;53.972;12.286;2022-07-06T09:02:40;2.67;;;0.82;;
64826;SDS011;51265;53.972;12.286;2022-07-06T09:05:06;1.90;;;0.50;;
64826;SDS011;51265;53.972;12.286;2022-07-06T09:07:34;3.10;;;0.75;;
64826;SDS011;51265;53.972;12.286;2022-07-06T09:10:00;2.47;;;0.50;;
64826;SDS011;51265;53.972;12.286;2022-07-06T09:12:27;2.15;;;0.50;;
64826;SDS011;51265;53.972;12.286;2022-07-06T09:14:54;1.55;;;0.60;;
64826;SDS011;51265;53.972;12.286;2022-07-06T09:17:24;4.05;;;0.73;;
64826;SDS011;51265;53.972;12.286;2022-07-06T09:19:51;2.35;;;0.85;;
64826;SDS011;51265;53.972;12.286;2022-07-06T09:22:30;4.22;;;0.50;;
64826;SDS011;51265;53.972;12.286;2022-07-06T09:25:01;2.88;;;0.80;;
64826;SDS011;51265;53.972;12.286;2022-07-06T09:27:31;4.53;;;0.77;;
64826;SDS011;51265;53.972;12.286;2022-07-06T09:30:03;1.30;;;0.40;;
64826;SDS011;51265;53.972;12.286;2022-07-06T09:32:30;2.38;;;0.52;;
64826;SDS011;51265;53.972;12.286;2022-07-06T09:34:56;1.67;;;0.60;;
64826;SDS011;51265;53.972;12.286;2022-07-06T09:37:22;2.78;;;0.40;;
64826;SDS011;51265;53.972;12.286;2022-07-06T09:39:50;2.83;;;0.70;;
64826;SDS011;51265;53.972;12.286;2022-07-06T09:42:16;3.17;;;0.60;;
64826;SDS011;51265;53.972;12.286;2022-07-06T09:44:50;3.63;;;0.55;;
64826;SDS011;51265;53.972;12.286;2022-07-06T09:47:16;3.63;;;0.60;;
64826;SDS011;51265;53.972;12.286;2022-07-06T09:49:44;3.05;;;0.50;;
64826;SDS011;51265;53.972;12.286;2022-07-06T09:52:11;2.78;;;0.60;;
64826;SDS011;51265;53.972;12.286;2022-07-06T09:54:38;2.03;;;0.50;;
64826;SDS011;51265;53.972;12.286;2022-07-06T09:57:05;2.45;;;0.40;;
64826;SDS011;51265;53.972;12.286;2022-07-06T09:59:31;3.50;;;0.80;;
64826;SDS011;51265;53.972;12.286;2022-07-06T10:02:01;2.70;;;0.70;;
64826;SDS011;51265;53.972;12.286;2022-07-06T10:04:31;3.35;;;0.50;;
64826;SDS011;51265;53.972;12.286;2022-07-06T10:06:58;3.58;;;0.60;;
64826;SDS011;51265;53.972;12.286;2022-07-06T10:09:25;3.72;;;0.50;;
64826;SDS011;51265;53.972;12.286;2022-07-06T10:11:55;4.45;;;0.60;;
64826;SDS011;51265;53.972;12.286;2022-07-06T10:14:26;4.78;;;0.77;;
64826;SDS011;51265;53.972;12.286;2022-07-06T10:16:54;4.30;;;0.70;;
64826;SDS011;51265;53.972;12.286;2022-07-06T10:19:25;3.22;;;0.80;;
64826;SDS011;51265;53.972;12.286;2022-07-06T10:21:52;3.95;;;0.70;;
64826;SDS011;51265;53.972;12.286;2022-07-06T10:24:18;7.28;;;0.60;;
64826;SDS011;51265;53.972;12.286;2022-07-06T10:26:45;7.25;;;0.85;;
64826;SDS011;51265;53.972;12.286;2022-07-06T10:29:12;7.13;;;2.80;;
64826;SDS011;51265;53.972;12.286;2022-07-06T10:31:45;8.00;;;0.82;;
64826;SDS011;51265;53.972;12.286;2022-07-06T10:34:13;4.95;;;0.65;;
64826;SDS011;51265;53.972;12.286;2022-07-06T10:36:42;5.60;;;0.70;;
64826;SDS011;51265;53.972;12.286;2022-07-06T10:39:10;7.00;;;0.75;;
64826;SDS011;51265;53.972;12.286;2022-07-06T10:41:55;3.92;;;0.75;;
64826;SDS011;51265;53.972;12.286;2022-07-06T10:44:23;5.38;;;0.70;;
64826;SDS011;51265;53.972;12.286;2022-07-06T10:46:51;4.32;;;0.88;;
64826;SDS011;51265;53.972;12.286;2022-07-06T10:49:18;7.18;;;0.88;;
64826;SDS011;51265;53.972;12.286;2022-07-06T10:51:44;8.43;;;0.82;;
64826;SDS011;51265;53.972;12.286;2022-07-06T10:54:10;6.20;;;0.63;;
64826;SDS011;51265;53.972;12.286;2022-07-06T10:56:37;2.55;;;0.40;;
64826;SDS011;51265;53.972;12.286;2022-07-06T10:59:10;4.35;;;0.40;;
64826;SDS011;51265;53.972;12.286;2022-07-06T11:01:37;2.88;;;0.40;;
64826;SDS011;51265;53.972;12.286;2022-07-06T11:06:31;2.47;;;0.43;;
64826;SDS011;51265;53.972;12.286;2022-07-06T11:09:32;3.35;;;0.47;;
64826;SDS011;51265;53.972;12.286;2022-07-06T11:11:57;4.88;;;0.50;;
64826;SDS011;51265;53.972;12.286;2022-07-06T11:14:23;1.10;;;0.28;;
64826;SDS011;51265;53.972;12.286;2022-07-06T11:19:15;12.00;;;0.60;;
64826;SDS011;51265;53.972;12.286;2022-07-06T11:21:52;2.17;;;0.50;;
64826;SDS011;51265;53.972;12.286;2022-07-06T11:24:24;5.30;;;0.80;;
64826;SDS011;51265;53.972;12.286;2022-07-06T11:26:51;2.85;;;0.52;;
64826;SDS011;51265;53.972;12.286;2022-07-06T11:29:18;4.32;;;0.82;;
64826;SDS011;51265;53.972;12.286;2022-07-06T11:31:48;2.88;;;0.50;;
64826;SDS011;51265;53.972;12.286;2022-07-06T11:34:19;5.22;;;0.57;;
64826;SDS011;51265;53.972;12.286;2022-07-06T11:36:46;3.50;;;0.60;;
64826;SDS011;51265;53.972;12.286;2022-07-06T11:39:13;2.08;;;0.40;;
64826;SDS011;51265;53.972;12.286;2022-07-06T11:41:40;3.30;;;0.50;;
64826;SDS011;51265;53.972;12.286;2022-07-06T11:44:07;2.03;;;0.40;;
64826;SDS011;51265;53.972;12.286;2022-07-06T11:46:33;3.65;;;0.70;;
64826;SDS011;51265;53.972;12.286;2022-07-06T11:49:01;3.20;;;0.32;;
64826;SDS011;51265;53.972;12.286;2022-07-06T11:51:32;3.22;;;0.40;;
64826;SDS011;51265;53.972;12.286;2022-07-06T11:54:00;2.35;;;0.25;;
64826;SDS011;51265;53.972;12.286;2022-07-06T11:56:32;1.90;;;0.25;;
64826;SDS011;51265;53.972;12.286;2022-07-06T11:58:59;9.02;;;0.70;;
64826;SDS011;51265;53.972;12.286;2022-07-06T12:01:27;5.78;;;0.70;;
64826;SDS011;51265;53.972;12.286;2022-07-06T12:04:01;2.35;;;0.40;;
64826;SDS011;51265;53.972;12.286;2022-07-06T12:06:30;3.95;;;0.57;;
64826;SDS011;51265;53.972;12.286;2022-07-06T12:08:59;3.80;;;0.40;;
64826;SDS011;51265;53.972;12.286;2022-07-06T12:11:27;2.13;;;0.40;;
64826;SDS011;51265;53.972;12.286;2022-07-06T12:13:55;2.45;;;0.50;;
64826;SDS011;51265;53.972;12.286;2022-07-06T12:16:28;3.45;;;0.60;;
64826;SDS011;51265;53.972;12.286;2022-07-06T12:18:56;4.50;;;0.40;;
64826;SDS011;51265;53.972;12.286;2022-07-06T12:21:22;2.63;;;0.30;;
64826;SDS011;51265;53.972;12.286;2022-07-06T12:23:49;1.80;;;0.43;;
64826;SDS011;51265;53.972;12.286;2022-07-06T12:26:16;1.48;;;0.38;;
64826;SDS011;51265;53.972;12.286;2022-07-06T12:28:43;1.42;;;0.28;;
64826;SDS011;51265;53.972;12.286;2022-07-06T12:31:10;1.52;;;0.22;;
64826;SDS011;51265;53.972;12.286;2022-07-06T12:33:36;3.25;;;0.70;;
64826;SDS011;51265;53.972;12.286;2022-07-06T12:36:15;5.93;;;0.40;;
64826;SDS011;51265;53.972;12.286;2022-07-06T12:38:45;6.53;;;0.40;;
64826;SDS011;51265;53.972;12.286;2022-07-06T12:41:24;8.00;;;0.77;;
64826;SDS011;51265;53.972;12.286;2022-07-06T12:44:04;0.63;;;0.30;;
64826;SDS011;51265;53.972;12.286;2022-07-06T12:46:33;3.00;;;0.47;;
64826;SDS011;51265;53.972;12.286;2022-07-06T12:49:24;4.50;;;0.52;;
64826;SDS011;51265;53.972;12.286;2022-07-06T12:54:19;5.68;;;0.50;;
64826;SDS011;51265;53.972;12.286;2022-07-06T12:57:02;2.47;;;0.40;;
64826;SDS011;51265;53.972;12.286;2022-07-06T12:59:32;3.60;;;0.47;;
64826;SDS011;51265;53.972;12.286;2022-07-06T13:02:00;6.32;;;0.50;;
64826;SDS011;51265;53.972;12.286;2022-07-06T13:04:27;5.38;;;0.75;;
64826;SDS011;51265;53.972;12.286;2022-07-06T13:06:54;3.75;;;0.50;;
64826;SDS011;51265;53.972;12.286;2022-07-06T13:09:21;2.17;;;0.50;;
64826;SDS011;51265;53.972;12.286;2022-07-06T13:11:48;1.83;;;0.47;;
64826;SDS011;51265;53.972;12.286;2022-07-06T13:14:17;1.25;;;0.30;;
64826;SDS011;51265;53.972;12.286;2022-07-06T13:16:45;2.10;;;0.50;;
64826;SDS011;51265;53.972;12.286;2022-07-06T13:19:11;1.30;;;0.60;;
64826;SDS011;51265;53.972;12.286;2022-07-06T13:21:38;2.80;;;0.30;;
64826;SDS011;51265;53.972;12.286;2022-07-06T13:24:05;1.33;;;0.38;;
64826;SDS011;51265;53.972;12.286;2022-07-06T13:26:31;2.85;;;0.30;;
64826;SDS011;51265;53.972;12.286;2022-07-06T13:29:02;2.30;;;0.40;;
64826;SDS011;51265;53.972;12.286;2022-07-06T13:31:29;1.75;;;0.50;;
64826;SDS011;51265;53.972;12.286;2022-07-06T13:33:55;2.78;;;0.40;;
64826;SDS011;51265;53.972;12.286;2022-07-06T13:36:22;2.30;;;0.40;;
64826;SDS011;51265;53.972;12.286;2022-07-06T13:38:49;1.80;;;0.60;;
64826;SDS011;51265;53.972;12.286;2022-07-06T13:41:15;1.80;;;0.52;;
64826;SDS011;51265;53.972;12.286;2022-07-06T13:43:40;3.80;;;0.40;;
64826;SDS011;51265;53.972;12.286;2022-07-06T13:46:07;3.60;;;0.40;;
64826;SDS011;51265;53.972;12.286;2022-07-06T13:48:33;2.40;;;0.30;;
64826;SDS011;51265;53.972;12.286;2022-07-06T13:50:59;2.15;;;0.32;;
64826;SDS011;51265;53.972;12.286;2022-07-06T13:53:26;2.08;;;0.35;;
64826;SDS011;51265;53.972;12.286;2022-07-06T13:55:52;3.00;;;0.30;;
64826;SDS011;51265;53.972;12.286;2022-07-06T13:58:18;1.50;;;0.35;;
64826;SDS011;51265;53.972;12.286;2022-07-06T14:00:45;0.98;;;0.20;;
64826;SDS011;51265;53.972;12.286;2022-07-06T14:03:11;1.58;;;0.30;;
64826;SDS011;51265;53.972;12.286;2022-07-06T14:05:38;3.03;;;0.82;;
64826;SDS011;51265;53.972;12.286;2022-07-06T14:08:03;2.67;;;0.63;;
64826;SDS011;51265;53.972;12.286;2022-07-06T14:10:29;1.90;;;0.30;;
64826;SDS011;51265;53.972;12.286;2022-07-06T14:12:55;1.98;;;0.32;;
64826;SDS011;51265;53.972;12.286;2022-07-06T14:15:21;2.10;;;0.70;;
64826;SDS011;51265;53.972;12.286;2022-07-06T14:17:47;2.70;;;0.40;;
64826;SDS011;51265;53.972;12.286;2022-07-06T14:20:13;2.78;;;0.65;;
64826;SDS011;51265;53.972;12.286;2022-07-06T14:22:40;1.50;;;0.28;;
64826;SDS011;51265;53.972;12.286;2022-07-06T14:25:07;3.13;;;0.45;;
64826;SDS011;51265;53.972;12.286;2022-07-06T14:27:33;1.90;;;0.30;;
64826;SDS011;51265;53.972;12.286;2022-07-06T14:30:00;3.35;;;0.45;;
64826;SDS011;51265;53.972;12.286;2022-07-06T14:32:26;2.60;;;0.65;;
64826;SDS011;51265;53.972;12.286;2022-07-06T14:34:52;3.80;;;0.45;;
64826;SDS011;51265;53.972;12.286;2022-07-06T14:37:17;3.33;;;0.40;;
64826;SDS011;51265;53.972;12.286;2022-07-06T14:39:44;4.68;;;0.52;;
64826;SDS011;51265;53.972;12.286;2022-07-06T14:42:14;2.70;;;0.30;;
64826;SDS011;51265;53.972;12.286;2022-07-06T14:44:40;3.28;;;0.47;;